createdAt,value
2023-01-25T00:01:22.959Z,39.90
2023-01-25T00:03:51.312Z,37.20
2023-01-25T00:06:19.993Z,36.80
2023-01-25T00:08:51.653Z,39.50
2023-01-25T00:11:20.952Z,34.00
2023-01-25T00:13:49.638Z,41.60
2023-01-25T00:16:17.931Z,46.00
2023-01-25T00:18:46.063Z,37.10
2023-01-25T00:21:19.291Z,32.20
2023-01-25T00:23:47.572Z,36.60
2023-01-25T00:26:16.284Z,33.40
2023-01-25T00:28:51.792Z,37.90
2023-01-25T00:31:55.540Z,31.50
2023-01-25T00:34:27.338Z,36.40
2023-01-25T00:37:03.527Z,42.10
2023-01-25T00:39:31.909Z,45.50
2023-01-25T00:42:00.305Z,39.50
2023-01-25T00:44:28.942Z,36.40
2023-01-25T00:46:57.747Z,39.30
2023-01-25T00:49:27.174Z,46.00
2023-01-25T00:51:58.114Z,36.80
2023-01-25T00:54:26.597Z,38.10
2023-01-25T00:56:56.698Z,39.70
2023-01-25T00:59:25.285Z,39.20
2023-01-25T01:01:54.412Z,38.90
2023-01-25T01:04:26.243Z,40.80
2023-01-25T01:06:54.749Z,39.10
2023-01-25T01:09:23.636Z,34.20
2023-01-25T01:11:53.509Z,35.10
2023-01-25T01:14:22.351Z,36.30
2023-01-25T01:16:55.893Z,42.90
2023-01-25T01:19:25.553Z,36.70
2023-01-25T01:21:54.054Z,38.10
2023-01-25T01:24:23.818Z,40.90
2023-01-25T01:26:52.232Z,44.50
2023-01-25T01:29:20.409Z,39.20
2023-01-25T01:31:52.801Z,45.70
2023-01-25T01:34:24.742Z,41.60
2023-01-25T01:36:53.568Z,37.70
2023-01-25T01:39:21.988Z,35.60
2023-01-25T01:41:50.429Z,45.50
2023-01-25T01:44:20.725Z,39.40
2023-01-25T01:46:55.321Z,36.90
2023-01-25T01:49:29.677Z,37.00
2023-01-25T01:52:10.035Z,38.90
2023-01-25T01:54:49.585Z,40.90
2023-01-25T01:57:31.687Z,41.10
2023-01-25T02:00:14.166Z,43.70
2023-01-25T02:02:42.951Z,38.20
2023-01-25T02:05:22.012Z,38.00
2023-01-25T02:07:52.053Z,36.80
2023-01-25T02:10:21.228Z,33.60
2023-01-25T02:12:50.424Z,35.20
2023-01-25T02:15:18.601Z,36.50
2023-01-25T02:17:46.988Z,31.50
2023-01-25T02:20:19.399Z,36.90
2023-01-25T02:22:53.673Z,32.80
2023-01-25T02:25:21.959Z,33.50
2023-01-25T02:27:55.560Z,32.10
2023-01-25T02:30:25.068Z,30.90
2023-01-25T02:32:53.443Z,30.50
2023-01-25T02:35:23.681Z,37.10
2023-01-25T02:37:52.054Z,30.90
2023-01-25T02:40:20.371Z,35.20
2023-01-25T02:42:48.810Z,37.80
2023-01-25T02:45:18.006Z,43.10
2023-01-25T02:47:48.845Z,32.00
2023-01-25T02:52:45.619Z,40.70
2023-01-25T02:55:13.988Z,35.50
2023-01-25T02:57:43.394Z,37.80
2023-01-25T03:00:12.567Z,42.20
2023-01-25T03:02:40.783Z,37.00
2023-01-25T03:05:10.250Z,35.70
2023-01-25T03:07:39.795Z,37.20
2023-01-25T03:10:10.549Z,38.00
2023-01-25T03:12:38.902Z,43.00
2023-01-25T03:15:08.728Z,36.50
2023-01-25T03:17:37.713Z,38.50
2023-01-25T03:20:06.972Z,49.50
2023-01-25T03:22:35.393Z,36.50
2023-01-25T03:25:03.875Z,33.00
2023-01-25T03:27:32.256Z,33.40
2023-01-25T03:30:11.502Z,32.20
2023-01-25T03:32:39.771Z,30.50
2023-01-25T03:35:11.017Z,28.50
2023-01-25T03:37:39.834Z,33.60
2023-01-25T03:40:09.273Z,43.30
2023-01-25T03:42:37.998Z,51.50
2023-01-25T03:45:07.334Z,37.10
2023-01-25T03:47:36.347Z,42.90
2023-01-25T03:50:07.809Z,33.60
2023-01-25T03:55:13.938Z,36.10
2023-01-25T03:57:43.336Z,38.00
2023-01-25T04:00:13.027Z,35.70
2023-01-25T04:02:46.954Z,38.50
2023-01-25T04:05:17.895Z,41.30
2023-01-25T04:07:46.587Z,36.80
2023-01-25T04:10:15.986Z,48.20
2023-01-25T04:12:47.746Z,51.40
2023-01-25T04:15:16.693Z,48.00
2023-01-25T04:17:44.877Z,59.00
2023-01-25T04:20:19.032Z,39.90
2023-01-25T04:22:47.391Z,42.20
2023-01-25T04:25:16.286Z,35.60
2023-01-25T04:27:50.447Z,36.30
2023-01-25T04:30:18.905Z,30.50
2023-01-25T04:32:47.615Z,55.50
2023-01-25T04:35:32.051Z,38.90
2023-01-25T04:38:00.900Z,43.30
2023-01-25T04:40:35.875Z,40.20
2023-01-25T04:43:04.768Z,41.50
2023-01-25T04:45:33.376Z,47.60
2023-01-25T04:48:04.907Z,42.90
2023-01-25T04:50:34.837Z,36.60
2023-01-25T04:53:04.091Z,34.80
2023-01-25T04:55:34.168Z,34.10
2023-01-25T04:58:02.789Z,40.50
2023-01-25T05:00:32.663Z,40.60
2023-01-25T05:03:01.579Z,40.80
2023-01-25T05:05:30.436Z,36.70
2023-01-25T05:08:00.040Z,38.00
2023-01-25T05:10:28.354Z,39.00
2023-01-25T05:13:22.991Z,44.40
2023-01-25T05:15:57.776Z,34.10
2023-01-25T05:18:29.079Z,39.70
2023-01-25T05:20:59.329Z,38.00
2023-01-25T05:23:28.624Z,35.80
2023-01-25T05:26:15.652Z,34.90
2023-01-25T05:28:44.252Z,52.90
2023-01-25T05:31:38.862Z,39.60
2023-01-25T05:34:07.199Z,39.70
2023-01-25T05:36:35.495Z,35.90
2023-01-25T05:39:09.387Z,32.40
2023-01-25T05:41:37.877Z,33.30
2023-01-25T05:44:06.258Z,37.30
2023-01-25T05:46:37.063Z,34.30
2023-01-25T05:49:05.578Z,39.50
2023-01-25T05:51:35.814Z,34.30
2023-01-25T05:54:05.918Z,42.20
2023-01-25T05:56:35.432Z,31.80
2023-01-25T05:59:03.701Z,40.70
2023-01-25T06:01:31.786Z,35.50
2023-01-25T06:04:00.874Z,33.50
2023-01-25T06:06:29.877Z,40.50
2023-01-25T06:08:58.233Z,36.30
2023-01-25T06:11:27.137Z,44.40
2023-01-25T06:13:56.818Z,36.80
2023-01-25T06:16:25.040Z,33.70
2023-01-25T06:18:56.179Z,39.50
2023-01-25T06:21:47.706Z,39.00
2023-01-25T06:24:16.036Z,40.70
2023-01-25T06:26:44.970Z,33.90
2023-01-25T06:29:13.555Z,36.50
2023-01-25T06:31:41.861Z,35.20
2023-01-25T06:34:10.932Z,37.00
2023-01-25T06:36:39.309Z,41.40
2023-01-25T06:39:07.598Z,38.60
2023-01-25T06:44:05.803Z,34.30
2023-01-25T06:46:35.942Z,39.60
2023-01-25T06:49:04.610Z,37.00
2023-01-25T06:51:33.107Z,38.20
2023-01-25T06:54:02.660Z,39.50
2023-01-25T06:56:33.050Z,43.70
2023-01-25T06:59:01.611Z,37.20
2023-01-25T07:01:30.816Z,36.30
2023-01-25T07:04:02.349Z,34.80
2023-01-25T07:06:33.554Z,44.50
2023-01-25T07:09:04.313Z,35.30
2023-01-25T07:11:32.843Z,44.00
2023-01-25T07:14:01.282Z,42.40
2023-01-25T07:16:36.616Z,39.30
2023-01-25T07:19:05.881Z,38.10
2023-01-25T07:21:34.242Z,40.30
2023-01-25T07:24:03.861Z,44.10
2023-01-25T07:26:32.374Z,36.20
2023-01-25T07:29:00.837Z,42.80
2023-01-25T07:31:30.262Z,40.10
2023-01-25T07:33:58.821Z,35.50
2023-01-25T07:36:27.067Z,43.50
2023-01-25T07:38:56.403Z,45.60
2023-01-25T07:41:25.159Z,37.40
2023-01-25T07:49:43.822Z,48.00
2023-01-25T07:52:14.797Z,38.40
2023-01-25T07:54:48.378Z,42.30
2023-01-25T07:57:17.600Z,41.90
2023-01-25T08:02:16.408Z,45.90
2023-01-25T08:04:45.673Z,39.50
2023-01-25T08:07:14.417Z,41.70
2023-01-25T08:09:48.000Z,41.00
2023-01-25T08:12:17.715Z,42.90
2023-01-25T08:14:46.090Z,46.60
2023-01-25T08:17:14.778Z,39.80
2023-01-25T08:20:08.459Z,44.50
2023-01-25T08:22:37.251Z,41.90
2023-01-25T08:25:06.850Z,46.70
2023-01-25T08:27:38.310Z,41.40
2023-01-25T08:30:07.826Z,46.30
2023-01-25T08:32:39.263Z,42.10
2023-01-25T08:35:10.891Z,42.60
2023-01-25T08:37:39.403Z,57.70
2023-01-25T08:40:08.989Z,51.70
2023-01-25T08:42:43.354Z,39.90
2023-01-25T08:45:11.853Z,51.90
2023-01-25T08:47:40.198Z,50.90
2023-01-25T08:50:13.806Z,49.20
2023-01-25T08:52:42.287Z,49.60
2023-01-25T08:55:10.763Z,54.20
2023-01-25T08:57:39.252Z,53.40
2023-01-25T09:00:09.028Z,53.20
2023-01-25T09:02:37.812Z,51.80
2023-01-25T09:05:07.546Z,49.10
2023-01-25T09:07:38.827Z,52.10
2023-01-25T09:10:09.420Z,53.90
2023-01-25T09:12:41.220Z,66.30
2023-01-25T09:15:10.527Z,72.40
2023-01-25T09:20:09.440Z,54.80
2023-01-25T09:22:37.906Z,60.40
2023-01-25T09:25:06.709Z,52.70
2023-01-25T09:27:35.079Z,60.90
2023-01-25T09:31:10.739Z,53.40
2023-01-25T09:34:05.137Z,67.50
2023-01-25T09:36:33.809Z,56.90
2023-01-25T09:39:02.085Z,48.30
2023-01-25T09:41:49.825Z,47.60
2023-01-25T09:44:37.149Z,50.50
2023-01-25T09:47:12.418Z,53.60
2023-01-25T09:49:59.634Z,46.80
2023-01-25T09:52:46.931Z,49.30
2023-01-25T09:55:16.074Z,50.00
2023-01-25T09:57:45.593Z,49.60
2023-01-25T10:00:19.664Z,47.00
2023-01-25T10:03:08.526Z,49.40
2023-01-25T10:05:42.973Z,46.20
2023-01-25T10:08:44.904Z,52.70
2023-01-25T10:11:39.501Z,52.00
2023-01-25T10:14:13.717Z,62.00
2023-01-25T10:16:44.177Z,49.70
2023-01-25T10:19:23.006Z,54.10
2023-01-25T10:21:56.701Z,51.90
2023-01-25T10:24:55.882Z,48.80
2023-01-25T10:27:57.854Z,47.50
2023-01-25T10:30:30.860Z,49.80
2023-01-25T10:33:01.425Z,51.90
2023-01-25T10:35:40.287Z,47.40
2023-01-25T10:38:25.778Z,52.40
2023-01-25T10:41:03.165Z,50.90
2023-01-25T10:43:31.758Z,47.10
2023-01-25T10:46:00.008Z,54.50
2023-01-25T10:48:34.368Z,57.10
2023-01-25T10:51:02.738Z,66.70
2023-01-25T10:53:34.703Z,57.60
2023-01-25T10:58:46.525Z,56.60
2023-01-25T11:01:31.968Z,51.30
2023-01-25T11:04:01.597Z,50.70
2023-01-25T11:06:38.282Z,78.40
2023-01-25T11:09:29.834Z,75.80
2023-01-25T11:12:03.607Z,51.50
2023-01-25T11:14:32.536Z,64.70
2023-01-25T11:17:03.749Z,60.00
2023-01-25T11:19:32.043Z,48.30
2023-01-25T11:22:02.562Z,60.20
2023-01-25T11:24:35.083Z,70.00
2023-01-25T11:27:32.881Z,44.20
2023-01-25T11:30:19.413Z,45.40
2023-01-25T11:32:47.454Z,57.40
2023-01-25T11:35:21.234Z,51.70
2023-01-25T11:38:17.327Z,53.30
2023-01-25T11:40:48.069Z,58.40
2023-01-25T11:43:32.120Z,50.30
2023-01-25T11:46:13.212Z,46.90
2023-01-25T11:49:05.839Z,46.60
2023-01-25T11:52:13.348Z,48.10
2023-01-25T11:54:57.074Z,53.30
2023-01-25T11:57:43.330Z,54.80
2023-01-25T12:00:20.467Z,50.00
2023-01-25T12:03:24.447Z,48.10
2023-01-25T12:06:25.314Z,42.30
2023-01-25T12:08:58.018Z,38.90
2023-01-25T12:11:35.278Z,45.10
2023-01-25T12:14:26.618Z,49.50
2023-01-25T12:16:57.616Z,38.20
2023-01-25T12:19:35.200Z,55.20
2023-01-25T12:22:18.777Z,54.50
2023-01-25T12:25:22.911Z,53.70
2023-01-25T12:28:29.698Z,47.80
2023-01-25T12:31:14.924Z,56.50
2023-01-25T12:33:52.861Z,47.90
2023-01-25T12:36:44.065Z,40.40
2023-01-25T12:39:30.905Z,46.70
2023-01-25T12:42:05.014Z,51.90
2023-01-25T12:44:39.084Z,45.40
2023-01-25T12:47:45.496Z,47.50
2023-01-25T12:50:49.369Z,51.90
2023-01-25T12:53:23.729Z,55.80
2023-01-25T12:55:52.324Z,55.20
2023-01-25T12:58:44.045Z,38.00
2023-01-25T13:01:26.994Z,43.70
2023-01-25T13:04:28.208Z,46.50
2023-01-25T13:07:54.603Z,43.70
2023-01-25T13:10:29.586Z,44.00
2023-01-25T13:13:05.244Z,49.80
2023-01-25T13:15:43.554Z,45.90
2023-01-25T13:18:28.547Z,46.50
2023-01-25T13:21:00.731Z,50.80
2023-01-25T16:26:22.859Z,52.70
2023-01-25T16:28:53.159Z,64.70
2023-01-25T16:31:31.987Z,55.80
2023-01-25T16:34:00.602Z,63.60
2023-01-25T16:36:27.684Z,53.20
2023-01-25T16:38:54.643Z,53.00
2023-01-25T16:41:21.438Z,53.80
2023-01-25T16:43:48.426Z,47.40
2023-01-25T16:46:16.977Z,59.80
2023-01-25T16:48:44.584Z,52.50
2023-01-25T16:51:22.274Z,51.40
2023-01-25T16:53:55.155Z,50.10
2023-01-25T16:56:23.637Z,54.50
2023-01-25T16:58:50.814Z,55.80
2023-01-25T17:01:18.636Z,48.70
2023-01-25T17:03:45.911Z,55.70
2023-01-25T17:06:24.684Z,52.50
2023-01-25T17:09:00.325Z,96.50
2023-01-25T17:11:28.678Z,94.20
2023-01-25T17:13:56.942Z,61.50
2023-01-25T17:16:25.337Z,53.20
2023-01-25T17:18:55.851Z,55.90
2023-01-25T17:21:22.797Z,48.40
2023-01-25T17:23:49.678Z,53.20
2023-01-25T17:26:17.534Z,51.00
2023-01-25T17:28:44.765Z,57.30
2023-01-25T17:31:16.156Z,58.20
2023-01-25T17:33:43.542Z,47.30
2023-01-25T17:36:10.510Z,62.20
2023-01-25T17:38:40.365Z,57.60
2023-01-25T17:41:08.364Z,57.00
2023-01-25T17:43:35.354Z,51.60
2023-01-25T17:46:25.602Z,56.80
2023-01-25T17:51:24.660Z,60.10
2023-01-25T17:53:52.532Z,56.80
2023-01-25T17:56:19.803Z,57.70
2023-01-25T17:58:46.829Z,54.10
2023-01-25T18:01:19.043Z,54.40
2023-01-25T18:03:46.467Z,52.60
2023-01-25T18:06:19.359Z,55.60
2023-01-25T18:08:48.217Z,59.30
2023-01-25T18:11:16.971Z,57.10
2023-01-25T18:13:49.029Z,59.80
2023-01-25T18:16:16.854Z,48.70
2023-01-25T18:18:44.222Z,51.70
2023-01-25T18:21:13.046Z,55.30
2023-01-25T18:23:40.900Z,78.10
2023-01-25T18:26:16.024Z,62.10
2023-01-25T18:28:43.525Z,65.80
2023-01-25T18:31:10.386Z,65.60
2023-01-25T18:33:37.884Z,66.70
2023-01-25T18:36:05.474Z,71.20
2023-01-25T18:38:34.773Z,59.40
2023-01-25T18:41:01.499Z,61.10
2023-01-25T18:43:28.460Z,61.80
2023-01-25T18:45:56.021Z,50.40
2023-01-25T18:48:30.162Z,64.40
2023-01-25T18:51:09.275Z,61.00
2023-01-25T18:53:37.369Z,66.50
2023-01-25T18:56:09.259Z,58.60
2023-01-25T18:58:42.609Z,58.00
2023-01-25T19:01:17.748Z,56.50
2023-01-25T19:03:45.268Z,58.00
2023-01-25T19:06:14.196Z,52.80
2023-01-25T19:08:43.577Z,60.20
2023-01-25T19:11:14.614Z,63.00
2023-01-25T19:13:41.978Z,58.60
2023-01-25T19:16:13.373Z,59.80
2023-01-25T19:18:45.762Z,59.50
2023-01-25T19:21:13.874Z,63.60
2023-01-25T19:23:40.663Z,51.90
2023-01-25T19:26:08.295Z,46.40
2023-01-25T19:28:35.400Z,45.90
2023-01-25T19:31:09.749Z,60.40
2023-01-25T19:33:37.308Z,52.60
2023-01-25T19:36:06.078Z,58.60
2023-01-25T19:38:39.808Z,52.50
2023-01-25T19:41:07.889Z,49.10
2023-01-25T19:43:40.812Z,56.30
2023-01-25T19:46:09.081Z,56.60
2023-01-25T19:48:38.401Z,57.60
2023-01-25T19:51:15.434Z,55.50
2023-01-25T19:53:45.833Z,52.60
2023-01-25T19:56:16.832Z,52.70
2023-01-25T19:58:45.908Z,49.20
2023-01-25T20:01:14.590Z,54.00
2023-01-25T20:03:41.632Z,54.80
2023-01-25T20:06:08.610Z,56.90
2023-01-25T20:08:37.502Z,67.00
2023-01-25T20:11:15.414Z,64.50
2023-01-25T20:13:42.431Z,60.40
2023-01-25T20:16:10.013Z,52.70
2023-01-25T20:18:38.139Z,56.80
2023-01-25T20:21:36.057Z,59.40
2023-01-25T20:24:03.847Z,49.00
2023-01-25T20:26:35.505Z,47.70
2023-01-25T20:29:02.613Z,55.70
2023-01-25T20:31:33.150Z,49.10
2023-01-25T20:34:01.967Z,47.90
2023-01-25T20:36:30.067Z,51.10
2023-01-25T20:38:56.999Z,54.10
2023-01-25T20:41:24.293Z,53.40
2023-01-25T20:44:01.200Z,55.00
2023-01-25T20:46:29.160Z,60.00
2023-01-25T20:48:55.894Z,58.60
2023-01-25T20:51:26.719Z,60.90
2023-01-25T20:53:54.269Z,54.80
2023-01-25T20:56:21.586Z,58.80
2023-01-25T20:58:52.071Z,56.50
2023-01-25T21:01:23.473Z,58.70
2023-01-25T21:03:50.539Z,56.10
2023-01-25T21:06:17.385Z,53.50
2023-01-25T21:08:44.341Z,54.20
2023-01-25T21:11:12.708Z,49.70
2023-01-25T21:13:39.668Z,57.40
2023-01-25T21:16:11.519Z,50.80
2023-01-25T21:18:40.502Z,58.20
2023-01-25T21:21:12.277Z,59.20
2023-01-25T21:23:44.553Z,56.80
2023-01-25T21:26:16.494Z,45.30
2023-01-25T21:28:44.124Z,41.40
2023-01-25T21:31:13.385Z,44.90
2023-01-25T21:33:40.512Z,48.90
2023-01-25T21:36:13.773Z,58.10
2023-01-25T21:38:45.524Z,60.70
2023-01-25T21:41:21.015Z,53.20
2023-01-25T21:44:07.274Z,46.80
2023-01-25T21:46:34.114Z,50.30
2023-01-25T21:49:24.334Z,48.80
2023-01-25T21:51:52.594Z,44.80
2023-01-25T21:54:20.324Z,47.00
2023-01-25T21:56:48.163Z,45.70
2023-01-25T21:59:15.236Z,51.10
